createdAt,value
2019-04-23T00:00:13.937Z,11.68
2019-04-23T00:02:48.850Z,12.30
2019-04-23T00:05:31.310Z,11.22
2019-04-23T00:07:56.148Z,10.45
2019-04-23T00:10:30.365Z,11.50
2019-04-23T00:12:59.354Z,11.28
2019-04-23T00:15:45.432Z,11.35
2019-04-23T00:18:12.309Z,10.85
2019-04-23T00:20:49.454Z,11.33
2019-04-23T00:23:18.986Z,11.03
2019-04-23T00:25:57.265Z,10.87
2019-04-23T00:28:30.157Z,10.55
2019-04-23T00:33:30.261Z,10.50
2019-04-23T00:36:05.257Z,9.18
2019-04-23T00:38:38.930Z,10.68
2019-04-23T00:41:09.425Z,10.30
2019-04-23T00:43:48.652Z,9.40
2019-04-23T00:46:24.888Z,10.88
2019-04-23T00:48:57.766Z,10.63
2019-04-23T00:51:27.144Z,9.73
2019-04-23T00:54:00.204Z,9.93
2019-04-23T00:56:41.681Z,9.98
2019-04-23T00:59:08.353Z,10.55
2019-04-23T01:01:47.767Z,9.93
2019-04-23T01:04:11.835Z,9.25
2019-04-23T01:06:46.066Z,9.83
2019-04-23T01:09:14.245Z,10.82
2019-04-23T01:11:48.141Z,9.20
2019-04-23T01:14:20.293Z,10.28
2019-04-23T01:16:48.428Z,10.10
2019-04-23T01:21:45.435Z,9.93
2019-04-23T01:24:20.275Z,9.80
2019-04-23T01:27:35.883Z,9.28
2019-04-23T01:29:50.613Z,9.40
2019-04-23T01:32:26.826Z,8.73
2019-04-23T01:35:09.675Z,9.30
2019-04-23T01:37:35.222Z,10.53
2019-04-23T01:40:07.717Z,8.35
2019-04-23T01:42:40.572Z,8.68
2019-04-23T01:45:26.056Z,8.83
2019-04-23T01:50:20.542Z,9.18
2019-04-23T01:52:55.136Z,8.68
2019-04-23T01:55:33.075Z,8.40
2019-04-23T02:00:34.093Z,8.33
2019-04-23T02:03:12.952Z,8.85
2019-04-23T02:05:43.275Z,8.33
2019-04-23T02:08:12.885Z,8.50
2019-04-23T02:11:02.824Z,8.98
2019-04-23T02:13:28.575Z,8.58
2019-04-23T02:15:54.012Z,8.58
2019-04-23T02:18:33.876Z,9.25
2019-04-23T02:21:03.538Z,8.03
2019-04-23T02:23:38.893Z,7.85
2019-04-23T02:26:10.651Z,9.05
2019-04-23T02:28:47.480Z,8.50
2019-04-23T02:31:43.741Z,8.40
2019-04-23T02:36:24.575Z,8.23
2019-04-23T02:38:57.958Z,7.72
2019-04-23T02:41:35.130Z,7.40
2019-04-23T02:46:40.951Z,8.68
2019-04-23T02:49:17.733Z,8.15
2019-04-23T02:52:10.547Z,9.38
2019-04-23T02:54:48.333Z,8.60
2019-04-23T02:57:09.349Z,8.13
2019-04-23T03:02:19.350Z,7.87
2019-04-23T03:07:13.972Z,9.28
2019-04-23T03:09:45.228Z,8.53
2019-04-23T03:14:52.886Z,8.75
2019-04-23T03:17:15.140Z,8.60
2019-04-23T03:22:42.178Z,8.35
2019-04-23T03:25:12.600Z,8.10
2019-04-23T03:30:30.065Z,7.83
2019-04-23T03:35:15.983Z,8.43
2019-04-23T03:40:43.093Z,8.03
2019-04-23T03:43:12.297Z,8.38
2019-04-23T03:45:55.823Z,8.48
2019-04-23T03:48:17.904Z,8.10
2019-04-23T03:50:44.036Z,8.40
2019-04-23T03:56:12.538Z,8.95
2019-04-23T04:01:07.569Z,7.80
2019-04-23T04:06:14.226Z,8.40
2019-04-23T04:11:14.543Z,8.65
2019-04-23T04:14:10.229Z,7.55
2019-04-23T04:19:09.253Z,9.18
2019-04-23T04:26:46.834Z,7.45
2019-04-23T04:36:58.434Z,7.42
2019-04-23T04:39:26.647Z,7.30
2019-04-23T04:49:41.429Z,8.23
2019-04-23T04:54:24.722Z,7.78
2019-04-23T04:57:24.165Z,8.15
2019-04-23T04:59:53.982Z,7.53
2019-04-23T05:05:01.511Z,8.28
2019-04-23T05:10:09.313Z,7.80
2019-04-23T05:15:04.633Z,8.80
2019-04-23T05:17:55.242Z,8.58
2019-04-23T05:20:16.975Z,7.65
2019-04-23T05:22:52.649Z,7.90
2019-04-23T05:25:11.001Z,7.85
2019-04-23T05:28:02.798Z,7.58
2019-04-23T05:30:25.128Z,8.63
2019-04-23T05:33:02.620Z,8.95
2019-04-23T05:35:59.189Z,8.83
2019-04-23T05:40:45.347Z,7.90
2019-04-23T05:43:08.182Z,7.00
2019-04-23T05:45:40.203Z,7.08
2019-04-23T05:48:19.399Z,7.95
2019-04-23T05:51:00.840Z,7.40
2019-04-23T06:01:21.570Z,8.28
2019-04-23T06:03:38.673Z,9.23
2019-04-23T06:06:21.184Z,8.23
2019-04-23T06:08:56.382Z,6.83
2019-04-23T06:11:28.449Z,6.53
2019-04-23T06:16:36.391Z,6.97
2019-04-23T06:19:07.430Z,7.50
2019-04-23T06:21:44.736Z,7.40
2019-04-23T06:24:18.342Z,7.28
2019-04-23T06:26:45.498Z,6.50
2019-04-23T06:37:02.198Z,6.70
2019-04-23T06:39:36.639Z,6.60
2019-04-23T06:42:20.859Z,6.87
2019-04-23T06:44:43.069Z,7.12
2019-04-23T06:47:16.699Z,7.25
2019-04-23T06:49:52.312Z,7.08
2019-04-23T06:52:24.873Z,6.45
2019-04-23T06:55:06.412Z,7.00
2019-04-23T06:57:42.620Z,7.12
2019-04-23T07:00:02.440Z,6.20
2019-04-23T07:02:42.048Z,6.35
2019-04-23T07:05:15.873Z,6.37
2019-04-23T07:07:54.813Z,6.33
2019-04-23T07:10:18.440Z,6.92
2019-04-23T07:12:50.449Z,6.50
2019-04-23T07:15:33.249Z,6.53
2019-04-23T07:18:00.674Z,7.25
2019-04-23T07:20:33.514Z,7.50
2019-04-23T07:25:38.955Z,6.78
2019-04-23T07:28:19.449Z,6.55
2019-04-23T07:30:49.623Z,6.30
2019-04-23T07:33:20.858Z,6.78
2019-04-23T07:35:51.681Z,7.12
2019-04-23T07:38:44.249Z,7.03
2019-04-23T07:41:09.725Z,6.72
2019-04-23T07:43:37.672Z,6.95
2019-04-23T07:46:20.192Z,6.45
2019-04-23T07:48:41.879Z,6.40
2019-04-23T07:51:20.921Z,5.97
2019-04-23T07:54:16.035Z,6.62
2019-04-23T07:57:15.319Z,6.62
2019-04-23T07:59:43.067Z,5.80
2019-04-23T08:02:19.402Z,6.25
2019-04-23T08:05:00.849Z,5.67
2019-04-23T08:07:28.195Z,5.92
2019-04-23T08:10:02.010Z,6.97
2019-04-23T08:15:07.482Z,5.28
2019-04-23T08:17:34.577Z,5.50
2019-04-23T08:20:19.411Z,5.42
2019-04-23T08:25:29.967Z,5.12
2019-04-23T08:28:01.698Z,5.58
2019-04-23T08:30:33.455Z,5.08
2019-04-23T08:33:13.942Z,5.30
2019-04-23T08:35:42.944Z,6.08
2019-04-23T08:38:24.616Z,5.80
2019-04-23T08:40:57.188Z,5.85
2019-04-23T08:43:36.060Z,5.50
2019-04-23T08:46:01.923Z,5.08
2019-04-23T08:48:34.190Z,6.00
2019-04-23T08:51:21.051Z,5.35
2019-04-23T08:53:40.851Z,5.55
2019-04-23T08:56:24.092Z,5.00
2019-04-23T08:59:11.007Z,5.75
2019-04-23T09:01:52.469Z,6.22
2019-04-23T09:03:56.111Z,6.60
2019-04-23T09:06:47.209Z,5.97
2019-04-23T09:09:06.935Z,6.30
2019-04-23T09:11:50.900Z,6.28
2019-04-23T09:14:05.181Z,6.53
2019-04-23T09:16:52.828Z,5.97
2019-04-23T09:19:24.006Z,5.20
2019-04-23T09:22:05.951Z,5.55
2019-04-23T09:24:38.264Z,7.03
2019-04-23T09:27:11.749Z,6.08
2019-04-23T09:29:46.024Z,7.17
2019-04-23T10:13:26.213Z,8.40
2019-04-23T10:15:58.145Z,7.08
2019-04-23T10:18:30.919Z,7.05
2019-04-23T10:21:03.383Z,7.83
2019-04-23T10:23:34.406Z,6.87
2019-04-23T10:26:06.158Z,7.22
2019-04-23T10:28:40.219Z,6.10
2019-04-23T10:31:12.700Z,7.08
2019-04-23T10:33:44.024Z,6.35
2019-04-23T10:36:19.460Z,6.47
2019-04-23T10:38:55.991Z,7.90
2019-04-23T10:41:22.334Z,6.33
2019-04-23T10:43:56.677Z,7.10
2019-04-23T10:46:53.669Z,7.08
2019-04-23T10:49:51.045Z,6.35
2019-04-23T10:52:20.515Z,7.05
2019-04-23T10:57:14.821Z,7.22
2019-04-23T11:09:57.066Z,8.03
2019-04-23T11:12:37.041Z,6.72
2019-04-23T11:20:27.429Z,7.85
2019-04-23T11:22:45.109Z,8.58
2019-04-23T11:25:29.987Z,6.22
2019-04-23T11:27:48.953Z,6.85
2019-04-23T11:30:39.032Z,7.37
2019-04-23T11:35:39.544Z,7.83
2019-04-23T11:38:22.057Z,7.67
2019-04-23T11:40:33.914Z,8.13
2019-04-23T12:21:45.414Z,6.15
2019-04-23T12:24:16.260Z,7.15
2019-04-23T12:26:53.897Z,7.20
2019-04-23T12:29:21.086Z,7.67
2019-04-23T12:57:18.672Z,7.77
2019-04-23T13:02:25.854Z,8.40
2019-04-23T13:04:52.425Z,8.00
2019-04-23T14:41:52.507Z,8.10
2019-04-23T14:47:05.032Z,8.80
2019-04-23T14:49:25.778Z,9.10
2019-04-23T14:52:00.221Z,8.10
2019-04-23T14:55:01.371Z,8.45
2019-04-23T14:57:11.241Z,9.00
2019-04-23T14:59:41.175Z,8.70
2019-04-23T15:02:14.552Z,9.73
2019-04-23T15:07:22.972Z,7.92
2019-04-23T15:12:30.695Z,8.55
2019-04-23T15:15:06.413Z,8.68
2019-04-23T15:17:36.203Z,8.05
2019-04-23T15:20:11.621Z,8.83
2019-04-23T15:30:24.840Z,8.30
2019-04-23T15:33:11.801Z,8.10
2019-04-23T15:38:34.039Z,8.85
2019-04-23T15:41:07.372Z,8.68
2019-04-23T15:43:41.176Z,8.55
2019-04-23T15:46:21.901Z,8.60
2019-04-23T15:48:53.985Z,9.28
2019-04-23T15:51:28.239Z,8.00
2019-04-23T15:53:53.174Z,9.85
2019-04-23T15:56:38.479Z,8.13
2019-04-23T15:59:12.838Z,8.60
2019-04-23T16:01:34.140Z,9.35
2019-04-23T16:03:41.884Z,9.43
2019-04-23T16:06:16.544Z,9.18
2019-04-23T16:09:06.242Z,8.53
2019-04-23T16:17:04.068Z,10.13
2019-04-23T16:22:06.703Z,10.15
2019-04-23T16:24:56.010Z,10.23
2019-04-23T16:29:55.509Z,9.60
2019-04-23T16:34:54.083Z,9.83
2019-04-23T16:37:29.247Z,10.15
2019-04-23T16:40:03.485Z,9.43
2019-04-23T16:42:29.275Z,8.98
2019-04-23T16:45:11.059Z,9.03
2019-04-23T16:47:43.536Z,10.18
2019-04-23T16:52:51.542Z,9.87
2019-04-23T16:55:24.144Z,10.60
2019-04-23T16:58:06.306Z,10.38
2019-04-23T17:00:30.552Z,8.50
2019-04-23T17:03:12.769Z,7.80
2019-04-23T17:05:39.485Z,9.10
2019-04-23T17:08:36.189Z,10.00
2019-04-23T17:11:00.404Z,10.60
2019-04-23T17:13:34.559Z,11.18
2019-04-23T17:16:15.113Z,11.13
2019-04-23T17:29:08.693Z,19.40
2019-04-23T17:31:35.624Z,11.60
2019-04-23T17:34:18.718Z,10.58
2019-04-23T17:36:40.379Z,11.65
2019-04-23T17:39:21.122Z,18.17
2019-04-23T17:42:06.834Z,12.40
2019-04-23T17:46:56.282Z,12.25
2019-04-23T17:49:36.767Z,12.53
2019-04-23T17:52:05.114Z,10.30
2019-04-23T17:54:41.134Z,10.75
2019-04-23T18:00:04.862Z,11.38
2019-04-23T18:02:49.384Z,10.65
2019-04-23T18:05:09.825Z,11.45
2019-04-23T18:10:25.348Z,11.40
2019-04-23T18:25:43.351Z,9.75
2019-04-23T18:38:39.960Z,9.23
2019-04-23T18:41:33.722Z,10.90
2019-04-23T18:43:51.164Z,8.58
2019-04-23T18:46:32.049Z,8.83
2019-04-23T18:48:54.671Z,9.23
2019-04-23T18:51:33.920Z,8.90
2019-04-23T18:54:01.139Z,9.75
2019-04-23T18:56:53.426Z,10.08
2019-04-23T18:59:09.004Z,9.43
2019-04-23T19:01:48.742Z,10.00
2019-04-23T19:06:44.056Z,10.23
2019-04-23T19:09:38.576Z,10.43
2019-04-23T19:12:25.177Z,9.88
2019-04-23T19:24:45.267Z,16.00
2019-04-23T19:29:59.859Z,9.98
2019-04-23T19:32:24.463Z,8.48
2019-04-23T19:35:16.131Z,9.15
2019-04-23T19:40:24.515Z,9.63
2019-04-23T19:45:29.167Z,8.83
2019-04-23T19:50:43.721Z,9.03
2019-04-23T19:53:22.840Z,9.75
2019-04-23T19:55:57.096Z,8.60
2019-04-23T19:58:34.510Z,10.30
2019-04-23T20:03:37.127Z,8.68
2019-04-23T20:06:14.488Z,9.38
2019-04-23T20:08:53.273Z,9.35
2019-04-23T20:11:08.072Z,8.50
2019-04-23T20:13:50.564Z,9.30
2019-04-23T20:16:26.010Z,8.75
2019-04-23T20:21:23.247Z,8.13
2019-04-23T20:24:04.228Z,9.28
2019-04-23T20:26:41.329Z,8.63
2019-04-23T20:29:19.612Z,8.80
2019-04-23T20:39:26.706Z,9.65
2019-04-23T20:47:24.403Z,9.13
2019-04-23T20:52:32.030Z,8.73
2019-04-23T20:55:01.139Z,8.85
2019-04-23T21:08:00.816Z,9.28
2019-04-23T21:10:33.967Z,9.08
2019-04-23T21:15:42.143Z,8.78
2019-04-23T21:18:15.977Z,9.13
2019-04-23T21:20:41.251Z,8.88
2019-04-23T21:23:21.282Z,8.33
2019-04-23T21:25:47.512Z,9.38
2019-04-23T21:28:38.214Z,10.03
2019-04-23T21:31:27.481Z,9.08
2019-04-23T21:36:13.396Z,8.33
2019-04-23T21:41:17.202Z,8.13
2019-04-23T21:46:47.631Z,9.35
2019-04-23T21:51:45.553Z,9.38
2019-04-23T21:53:58.481Z,9.65
2019-04-23T21:56:42.731Z,9.50
2019-04-23T21:59:06.990Z,9.70
2019-04-23T22:09:34.718Z,9.45
2019-04-23T22:14:40.558Z,9.95
2019-04-23T22:17:25.966Z,9.58
2019-04-23T22:19:55.653Z,9.75
2019-04-23T22:22:17.018Z,9.35
2019-04-23T22:24:53.076Z,9.25
2019-04-23T22:52:54.054Z,10.00
2019-04-23T22:55:40.358Z,9.20
2019-04-23T22:58:05.123Z,9.23
2019-04-23T23:00:49.762Z,9.98
2019-04-23T23:03:06.365Z,9.28
2019-04-23T23:05:53.522Z,9.98
2019-04-23T23:13:20.748Z,8.93
2019-04-23T23:15:53.292Z,9.05
2019-04-23T23:18:28.458Z,10.95
2019-04-23T23:20:59.641Z,8.95
2019-04-23T23:26:14.347Z,9.53
2019-04-23T23:31:22.427Z,9.53
2019-04-23T23:41:25.981Z,10.05
2019-04-23T23:44:23.983Z,8.70
2019-04-23T23:46:37.580Z,9.70
2019-04-23T23:49:08.497Z,9.05
2019-04-23T23:51:39.737Z,9.40
2019-04-23T23:56:49.772Z,8.70
